sensor_id;sensor_type;location;lat;lon;timestamp;pressure;altitude;pressure_sealevel;temperature;humidity
31681;BME280;18281;51.364;9.566;2023-09-18T00:01:29;99430.88;;;15.50;100.00
31681;BME280;18281;51.364;9.566;2023-09-18T00:03:55;99430.75;;;15.51;100.00
31681;BME280;18281;51.364;9.566;2023-09-18T00:06:20;99428.81;;;15.84;100.00
31681;BME280;18281;51.364;9.566;2023-09-18T00:08:48;99440.47;;;15.72;100.00
31681;BME280;18281;51.364;9.566;2023-09-18T00:11:15;99428.19;;;15.71;100.00
31681;BME280;18281;51.364;9.566;2023-09-18T00:13:40;99425.78;;;15.89;100.00
31681;BME280;18281;51.364;9.566;2023-09-18T00:16:05;99425.47;;;15.82;100.00
31681;BME280;18281;51.364;9.566;2023-09-18T00:18:31;99413.13;;;15.62;100.00
31681;BME280;18281;51.364;9.566;2023-09-18T00:20:56;99412.56;;;15.68;100.00
31681;BME280;18281;51.364;9.566;2023-09-18T00:23:21;99414.13;;;15.70;100.00
31681;BME280;18281;51.364;9.566;2023-09-18T00:25:46;99409.44;;;15.74;100.00
31681;BME280;18281;51.364;9.566;2023-09-18T00:28:12;99410.66;;;15.70;100.00
31681;BME280;18281;51.364;9.566;2023-09-18T00:30:38;99399.53;;;15.76;100.00
31681;BME280;18281;51.364;9.566;2023-09-18T00:33:08;99397.03;;;15.84;100.00
31681;BME280;18281;51.364;9.566;2023-09-18T00:35:33;99394.38;;;15.74;100.00
31681;BME280;18281;51.364;9.566;2023-09-18T00:37:58;99389.53;;;15.58;100.00
31681;BME280;18281;51.364;9.566;2023-09-18T00:40:23;99385.97;;;15.38;100.00
31681;BME280;18281;51.364;9.566;2023-09-18T00:42:49;99383.94;;;15.52;100.00
31681;BME280;18281;51.364;9.566;2023-09-18T00:45:14;99385.66;;;15.63;100.00
31681;BME280;18281;51.364;9.566;2023-09-18T00:47:39;99378.66;;;15.52;100.00
31681;BME280;18281;51.364;9.566;2023-09-18T00:50:05;99362.31;;;15.37;100.00
31681;BME280;18281;51.364;9.566;2023-09-18T00:52:32;99360.13;;;15.52;100.00
31681;BME280;18281;51.364;9.566;2023-09-18T00:54:58;99359.00;;;15.45;100.00
31681;BME280;18281;51.364;9.566;2023-09-18T00:57:25;99354.38;;;15.37;100.00
31681;BME280;18281;51.364;9.566;2023-09-18T00:59:50;99356.53;;;15.53;100.00
31681;BME280;18281;51.364;9.566;2023-09-18T01:02:15;99350.50;;;15.41;100.00
31681;BME280;18281;51.364;9.566;2023-09-18T01:04:41;99344.13;;;15.53;100.00
31681;BME280;18281;51.364;9.566;2023-09-18T01:07:09;99337.44;;;15.49;100.00
31681;BME280;18281;51.364;9.566;2023-09-18T01:09:34;99337.59;;;15.57;100.00
31681;BME280;18281;51.364;9.566;2023-09-18T01:14:40;99334.97;;;15.26;100.00
31681;BME280;18281;51.364;9.566;2023-09-18T01:17:09;99320.78;;;15.27;100.00
31681;BME280;18281;51.364;9.566;2023-09-18T01:22:04;99317.88;;;15.00;100.00
31681;BME280;18281;51.364;9.566;2023-09-18T01:24:31;99317.97;;;15.19;100.00
31681;BME280;18281;51.364;9.566;2023-09-18T01:26:56;99313.09;;;14.72;100.00
31681;BME280;18281;51.364;9.566;2023-09-18T01:29:21;99312.59;;;15.00;100.00
31681;BME280;18281;51.364;9.566;2023-09-18T01:31:47;99305.56;;;15.10;100.00
31681;BME280;18281;51.364;9.566;2023-09-18T01:34:14;99303.66;;;14.91;100.00
31681;BME280;18281;51.364;9.566;2023-09-18T01:36:40;99298.41;;;15.01;100.00
31681;BME280;18281;51.364;9.566;2023-09-18T01:39:05;99300.16;;;14.90;100.00
31681;BME280;18281;51.364;9.566;2023-09-18T01:41:31;99295.63;;;15.02;100.00
31681;BME280;18281;51.364;9.566;2023-09-18T01:43:57;99290.50;;;15.10;100.00
31681;BME280;18281;51.364;9.566;2023-09-18T01:46:23;99295.69;;;15.12;100.00
31681;BME280;18281;51.364;9.566;2023-09-18T01:48:48;99291.75;;;15.06;100.00
31681;BME280;18281;51.364;9.566;2023-09-18T01:51:14;99294.22;;;14.98;100.00
31681;BME280;18281;51.364;9.566;2023-09-18T01:53:40;99293.22;;;15.20;100.00
31681;BME280;18281;51.364;9.566;2023-09-18T01:56:05;99288.94;;;14.98;100.00
31681;BME280;18281;51.364;9.566;2023-09-18T01:58:32;99291.25;;;14.91;100.00
31681;BME280;18281;51.364;9.566;2023-09-18T02:01:00;99289.19;;;14.95;100.00
31681;BME280;18281;51.364;9.566;2023-09-18T02:03:25;99294.50;;;14.95;100.00
31681;BME280;18281;51.364;9.566;2023-09-18T02:05:50;99298.69;;;14.98;100.00
31681;BME280;18281;51.364;9.566;2023-09-18T02:08:16;99294.63;;;14.93;100.00
31681;BME280;18281;51.364;9.566;2023-09-18T02:10:41;99287.22;;;14.87;100.00
31681;BME280;18281;51.364;9.566;2023-09-18T02:13:06;99285.81;;;14.83;100.00
31681;BME280;18281;51.364;9.566;2023-09-18T02:15:31;99285.72;;;14.95;100.00
31681;BME280;18281;51.364;9.566;2023-09-18T02:17:57;99293.53;;;14.96;100.00
31681;BME280;18281;51.364;9.566;2023-09-18T02:20:22;99287.25;;;14.97;100.00
31681;BME280;18281;51.364;9.566;2023-09-18T02:22:48;99288.78;;;15.00;100.00
31681;BME280;18281;51.364;9.566;2023-09-18T02:25:14;99281.22;;;14.85;100.00
31681;BME280;18281;51.364;9.566;2023-09-18T02:27:39;99285.41;;;14.67;100.00
31681;BME280;18281;51.364;9.566;2023-09-18T02:30:04;99286.53;;;14.74;100.00
31681;BME280;18281;51.364;9.566;2023-09-18T02:32:30;99289.63;;;14.79;100.00
31681;BME280;18281;51.364;9.566;2023-09-18T02:34:55;99282.69;;;14.78;100.00
31681;BME280;18281;51.364;9.566;2023-09-18T02:37:20;99270.97;;;14.71;100.00
31681;BME280;18281;51.364;9.566;2023-09-18T02:39:45;99281.09;;;14.87;100.00
31681;BME280;18281;51.364;9.566;2023-09-18T02:42:11;99275.22;;;14.83;100.00
31681;BME280;18281;51.364;9.566;2023-09-18T02:44:36;99268.84;;;14.86;100.00
31681;BME280;18281;51.364;9.566;2023-09-18T02:47:01;99269.16;;;14.71;100.00
31681;BME280;18281;51.364;9.566;2023-09-18T02:49:26;99255.00;;;14.51;100.00
31681;BME280;18281;51.364;9.566;2023-09-18T02:51:52;99253.44;;;14.49;100.00
31681;BME280;18281;51.364;9.566;2023-09-18T02:54:17;99250.94;;;14.47;100.00
31681;BME280;18281;51.364;9.566;2023-09-18T02:56:42;99246.56;;;14.36;100.00
31681;BME280;18281;51.364;9.566;2023-09-18T02:59:07;99245.47;;;14.39;100.00
31681;BME280;18281;51.364;9.566;2023-09-18T03:01:33;99234.00;;;14.50;100.00
31681;BME280;18281;51.364;9.566;2023-09-18T03:03:59;99234.25;;;14.25;100.00
31681;BME280;18281;51.364;9.566;2023-09-18T03:06:24;99223.25;;;14.20;100.00
31681;BME280;18281;51.364;9.566;2023-09-18T03:08:49;99232.00;;;13.88;100.00
31681;BME280;18281;51.364;9.566;2023-09-18T03:11:15;99209.44;;;14.17;100.00
31681;BME280;18281;51.364;9.566;2023-09-18T03:13:44;99208.34;;;14.19;100.00
31681;BME280;18281;51.364;9.566;2023-09-18T03:16:11;99202.31;;;14.29;100.00
31681;BME280;18281;51.364;9.566;2023-09-18T03:18:37;99206.03;;;14.47;100.00
31681;BME280;18281;51.364;9.566;2023-09-18T03:21:02;99192.06;;;14.35;100.00
31681;BME280;18281;51.364;9.566;2023-09-18T03:23:28;99188.59;;;14.56;100.00
31681;BME280;18281;51.364;9.566;2023-09-18T03:25:53;99180.31;;;14.18;100.00
31681;BME280;18281;51.364;9.566;2023-09-18T03:28:18;99182.53;;;14.02;100.00
31681;BME280;18281;51.364;9.566;2023-09-18T03:30:43;99182.09;;;13.97;100.00
31681;BME280;18281;51.364;9.566;2023-09-18T03:33:08;99173.84;;;14.11;100.00
31681;BME280;18281;51.364;9.566;2023-09-18T03:35:44;99166.47;;;14.05;100.00
31681;BME280;18281;51.364;9.566;2023-09-18T03:38:09;99166.56;;;13.82;100.00
31681;BME280;18281;51.364;9.566;2023-09-18T03:40:34;99163.56;;;14.08;100.00
31681;BME280;18281;51.364;9.566;2023-09-18T03:43:00;99163.69;;;14.28;100.00
31681;BME280;18281;51.364;9.566;2023-09-18T03:45:25;99155.97;;;14.36;100.00
31681;BME280;18281;51.364;9.566;2023-09-18T03:47:50;99153.06;;;14.18;100.00
31681;BME280;18281;51.364;9.566;2023-09-18T03:50:16;99162.38;;;14.22;100.00
31681;BME280;18281;51.364;9.566;2023-09-18T03:52:41;99167.28;;;14.26;100.00
31681;BME280;18281;51.364;9.566;2023-09-18T03:55:07;99159.75;;;14.22;100.00
31681;BME280;18281;51.364;9.566;2023-09-18T03:57:32;99156.28;;;14.21;100.00
31681;BME280;18281;51.364;9.566;2023-09-18T03:59:57;99160.34;;;14.25;100.00
31681;BME280;18281;51.364;9.566;2023-09-18T04:02:25;99158.19;;;14.19;100.00
31681;BME280;18281;51.364;9.566;2023-09-18T04:04:51;99157.66;;;13.95;100.00
31681;BME280;18281;51.364;9.566;2023-09-18T04:07:16;99156.88;;;14.04;100.00
31681;BME280;18281;51.364;9.566;2023-09-18T04:09:43;99166.50;;;13.93;100.00
31681;BME280;18281;51.364;9.566;2023-09-18T04:12:08;99192.44;;;13.88;100.00
31681;BME280;18281;51.364;9.566;2023-09-18T04:14:34;99178.75;;;14.16;100.00
31681;BME280;18281;51.364;9.566;2023-09-18T04:16:59;99162.41;;;14.01;100.00
31681;BME280;18281;51.364;9.566;2023-09-18T04:19:28;99161.63;;;14.10;100.00
31681;BME280;18281;51.364;9.566;2023-09-18T04:21:53;99164.78;;;14.25;100.00
31681;BME280;18281;51.364;9.566;2023-09-18T04:24:22;99157.44;;;14.29;100.00
31681;BME280;18281;51.364;9.566;2023-09-18T04:26:47;99169.88;;;13.96;100.00
31681;BME280;18281;51.364;9.566;2023-09-18T04:29:18;99166.34;;;14.28;100.00
31681;BME280;18281;51.364;9.566;2023-09-18T04:31:44;99161.47;;;14.33;100.00
31681;BME280;18281;51.364;9.566;2023-09-18T04:34:10;99151.91;;;14.32;100.00
31681;BME280;18281;51.364;9.566;2023-09-18T04:36:35;99141.44;;;14.30;100.00
31681;BME280;18281;51.364;9.566;2023-09-18T04:39:04;99137.16;;;14.29;100.00
31681;BME280;18281;51.364;9.566;2023-09-18T04:41:32;99130.16;;;14.18;100.00
31681;BME280;18281;51.364;9.566;2023-09-18T04:43:58;99116.19;;;14.28;100.00
31681;BME280;18281;51.364;9.566;2023-09-18T04:46:23;99124.44;;;14.13;100.00
31681;BME280;18281;51.364;9.566;2023-09-18T04:48:52;99114.22;;;14.30;100.00
31681;BME280;18281;51.364;9.566;2023-09-18T04:51:17;99114.19;;;14.20;100.00
31681;BME280;18281;51.364;9.566;2023-09-18T04:53:42;99104.00;;;14.15;100.00
31681;BME280;18281;51.364;9.566;2023-09-18T04:56:08;99093.25;;;14.69;100.00
31681;BME280;18281;51.364;9.566;2023-09-18T04:58:35;99079.75;;;15.03;100.00
31681;BME280;18281;51.364;9.566;2023-09-18T05:01:02;99074.44;;;15.22;100.00
31681;BME280;18281;51.364;9.566;2023-09-18T05:03:27;99083.25;;;15.23;100.00
31681;BME280;18281;51.364;9.566;2023-09-18T05:05:53;99068.75;;;15.37;100.00
31681;BME280;18281;51.364;9.566;2023-09-18T05:08:19;99069.59;;;15.47;100.00
31681;BME280;18281;51.364;9.566;2023-09-18T05:10:44;99066.09;;;15.47;100.00
31681;BME280;18281;51.364;9.566;2023-09-18T05:13:10;99057.78;;;15.41;100.00
31681;BME280;18281;51.364;9.566;2023-09-18T05:15:36;99050.66;;;15.42;100.00
31681;BME280;18281;51.364;9.566;2023-09-18T05:18:02;99042.84;;;15.50;100.00
31681;BME280;18281;51.364;9.566;2023-09-18T05:20:28;99042.72;;;15.52;100.00
31681;BME280;18281;51.364;9.566;2023-09-18T05:22:55;99041.31;;;15.57;100.00
31681;BME280;18281;51.364;9.566;2023-09-18T05:25:21;99046.84;;;15.64;100.00
31681;BME280;18281;51.364;9.566;2023-09-18T05:27:47;99041.72;;;15.63;100.00
31681;BME280;18281;51.364;9.566;2023-09-18T05:30:18;99037.13;;;15.65;100.00
31681;BME280;18281;51.364;9.566;2023-09-18T05:32:45;99036.16;;;15.66;100.00
31681;BME280;18281;51.364;9.566;2023-09-18T05:35:12;99029.63;;;15.50;100.00
31681;BME280;18281;51.364;9.566;2023-09-18T05:37:38;99029.50;;;15.62;100.00
31681;BME280;18281;51.364;9.566;2023-09-18T05:40:04;99037.56;;;15.70;100.00
31681;BME280;18281;51.364;9.566;2023-09-18T05:42:30;99026.41;;;15.66;100.00
31681;BME280;18281;51.364;9.566;2023-09-18T05:44:56;99025.31;;;15.49;100.00
31681;BME280;18281;51.364;9.566;2023-09-18T05:47:21;99027.44;;;15.26;100.00
31681;BME280;18281;51.364;9.566;2023-09-18T05:49:47;99021.00;;;15.09;100.00
31681;BME280;18281;51.364;9.566;2023-09-18T05:52:12;99018.53;;;14.88;100.00
31681;BME280;18281;51.364;9.566;2023-09-18T05:54:37;99009.56;;;14.79;100.00
31681;BME280;18281;51.364;9.566;2023-09-18T05:57:03;98986.75;;;14.78;100.00
31681;BME280;18281;51.364;9.566;2023-09-18T05:59:28;98991.97;;;15.19;100.00
31681;BME280;18281;51.364;9.566;2023-09-18T06:01:53;98992.06;;;15.37;100.00
31681;BME280;18281;51.364;9.566;2023-09-18T06:04:19;98998.44;;;15.54;100.00
31681;BME280;18281;51.364;9.566;2023-09-18T06:06:44;98993.13;;;15.64;100.00
31681;BME280;18281;51.364;9.566;2023-09-18T06:09:10;98993.94;;;15.64;100.00
31681;BME280;18281;51.364;9.566;2023-09-18T06:11:35;98991.59;;;15.71;100.00
31681;BME280;18281;51.364;9.566;2023-09-18T06:14:00;98997.03;;;15.79;100.00
31681;BME280;18281;51.364;9.566;2023-09-18T06:16:26;98986.00;;;15.84;100.00
31681;BME280;18281;51.364;9.566;2023-09-18T06:18:51;98990.88;;;15.79;100.00
31681;BME280;18281;51.364;9.566;2023-09-18T06:21:16;98983.03;;;15.87;100.00
31681;BME280;18281;51.364;9.566;2023-09-18T06:23:41;98982.94;;;15.88;100.00
31681;BME280;18281;51.364;9.566;2023-09-18T06:26:07;98973.00;;;15.90;100.00
31681;BME280;18281;51.364;9.566;2023-09-18T06:28:32;98985.94;;;15.93;100.00
31681;BME280;18281;51.364;9.566;2023-09-18T06:30:57;98972.13;;;16.00;100.00
31681;BME280;18281;51.364;9.566;2023-09-18T06:33:22;98970.13;;;15.84;100.00
31681;BME280;18281;51.364;9.566;2023-09-18T06:35:48;98991.84;;;15.87;100.00
31681;BME280;18281;51.364;9.566;2023-09-18T06:38:13;98997.69;;;15.81;100.00
31681;BME280;18281;51.364;9.566;2023-09-18T06:40:40;99010.63;;;15.84;100.00
31681;BME280;18281;51.364;9.566;2023-09-18T06:43:05;99026.78;;;15.91;100.00
31681;BME280;18281;51.364;9.566;2023-09-18T06:45:30;99035.88;;;15.79;100.00
31681;BME280;18281;51.364;9.566;2023-09-18T06:47:57;99043.81;;;15.79;100.00
31681;BME280;18281;51.364;9.566;2023-09-18T06:50:22;99056.78;;;15.52;100.00
31681;BME280;18281;51.364;9.566;2023-09-18T06:52:48;99055.81;;;15.73;100.00
31681;BME280;18281;51.364;9.566;2023-09-18T06:55:14;99052.56;;;15.89;100.00
31681;BME280;18281;51.364;9.566;2023-09-18T06:57:41;99035.16;;;15.86;100.00
31681;BME280;18281;51.364;9.566;2023-09-18T07:00:07;99026.28;;;15.38;100.00
31681;BME280;18281;51.364;9.566;2023-09-18T07:02:32;99037.44;;;15.71;100.00
31681;BME280;18281;51.364;9.566;2023-09-18T07:04:57;99051.75;;;15.88;100.00
31681;BME280;18281;51.364;9.566;2023-09-18T07:07:23;99055.06;;;15.90;100.00
31681;BME280;18281;51.364;9.566;2023-09-18T07:09:50;99057.44;;;15.84;100.00
31681;BME280;18281;51.364;9.566;2023-09-18T07:12:15;99051.31;;;15.93;100.00
31681;BME280;18281;51.364;9.566;2023-09-18T07:14:44;99052.97;;;15.94;100.00
31681;BME280;18281;51.364;9.566;2023-09-18T07:17:10;99052.41;;;15.90;100.00
31681;BME280;18281;51.364;9.566;2023-09-18T07:19:35;99042.66;;;16.01;100.00
31681;BME280;18281;51.364;9.566;2023-09-18T07:22:00;99039.53;;;16.05;100.00
31681;BME280;18281;51.364;9.566;2023-09-18T07:24:26;99041.78;;;16.10;100.00
31681;BME280;18281;51.364;9.566;2023-09-18T07:26:51;99041.06;;;16.08;100.00
31681;BME280;18281;51.364;9.566;2023-09-18T07:29:16;99047.59;;;16.14;100.00
31681;BME280;18281;51.364;9.566;2023-09-18T07:31:42;99059.91;;;16.05;100.00
31681;BME280;18281;51.364;9.566;2023-09-18T07:34:07;99053.91;;;16.13;100.00
31681;BME280;18281;51.364;9.566;2023-09-18T07:36:32;99054.72;;;16.13;100.00
31681;BME280;18281;51.364;9.566;2023-09-18T07:38:58;99050.13;;;16.15;100.00
31681;BME280;18281;51.364;9.566;2023-09-18T07:41:23;99052.78;;;16.15;100.00
31681;BME280;18281;51.364;9.566;2023-09-18T07:43:48;99058.19;;;16.14;100.00
31681;BME280;18281;51.364;9.566;2023-09-18T07:46:14;99063.13;;;15.99;100.00
31681;BME280;18281;51.364;9.566;2023-09-18T07:48:39;99056.53;;;16.13;100.00
31681;BME280;18281;51.364;9.566;2023-09-18T07:51:04;99059.91;;;16.05;100.00
31681;BME280;18281;51.364;9.566;2023-09-18T07:53:30;99053.16;;;16.20;100.00
31681;BME280;18281;51.364;9.566;2023-09-18T07:55:56;99043.66;;;16.27;100.00
31681;BME280;18281;51.364;9.566;2023-09-18T07:58:22;99044.72;;;16.35;100.00
31681;BME280;18281;51.364;9.566;2023-09-18T08:00:47;99053.38;;;16.37;100.00
31681;BME280;18281;51.364;9.566;2023-09-18T08:03:13;99059.19;;;16.40;100.00
31681;BME280;18281;51.364;9.566;2023-09-18T08:05:39;99056.28;;;16.43;100.00
31681;BME280;18281;51.364;9.566;2023-09-18T08:08:04;99072.91;;;16.36;100.00
31681;BME280;18281;51.364;9.566;2023-09-18T08:10:30;99084.88;;;16.40;100.00
31681;BME280;18281;51.364;9.566;2023-09-18T08:12:55;99081.53;;;16.38;100.00
31681;BME280;18281;51.364;9.566;2023-09-18T08:15:21;99096.56;;;16.37;100.00
31681;BME280;18281;51.364;9.566;2023-09-18T08:17:46;99097.44;;;16.38;100.00
31681;BME280;18281;51.364;9.566;2023-09-18T08:20:13;99093.81;;;16.29;100.00
31681;BME280;18281;51.364;9.566;2023-09-18T08:22:40;99098.41;;;16.37;100.00
31681;BME280;18281;51.364;9.566;2023-09-18T08:25:06;99090.34;;;16.29;100.00
31681;BME280;18281;51.364;9.566;2023-09-18T08:27:36;99093.78;;;16.39;100.00
31681;BME280;18281;51.364;9.566;2023-09-18T08:30:02;99090.56;;;16.45;100.00
31681;BME280;18281;51.364;9.566;2023-09-18T08:32:28;99088.03;;;16.53;100.00
31681;BME280;18281;51.364;9.566;2023-09-18T08:34:55;99093.47;;;16.52;100.00
31681;BME280;18281;51.364;9.566;2023-09-18T08:37:20;99097.38;;;16.57;100.00
31681;BME280;18281;51.364;9.566;2023-09-18T08:39:45;99101.63;;;16.68;100.00
31681;BME280;18281;51.364;9.566;2023-09-18T08:42:10;99098.94;;;16.78;100.00
31681;BME280;18281;51.364;9.566;2023-09-18T08:44:37;99102.56;;;16.77;100.00
31681;BME280;18281;51.364;9.566;2023-09-18T08:47:03;99106.28;;;16.84;100.00
31681;BME280;18281;51.364;9.566;2023-09-18T08:49:29;99122.97;;;16.95;100.00
31681;BME280;18281;51.364;9.566;2023-09-18T08:51:55;99114.63;;;16.89;100.00
31681;BME280;18281;51.364;9.566;2023-09-18T08:54:21;99118.06;;;17.00;100.00
31681;BME280;18281;51.364;9.566;2023-09-18T08:56:46;99131.59;;;16.97;100.00
31681;BME280;18281;51.364;9.566;2023-09-18T08:59:12;99131.75;;;16.95;100.00
31681;BME280;18281;51.364;9.566;2023-09-18T09:01:38;99134.38;;;17.05;100.00
31681;BME280;18281;51.364;9.566;2023-09-18T09:04:03;99117.06;;;17.01;100.00
31681;BME280;18281;51.364;9.566;2023-09-18T09:06:29;99114.66;;;17.07;100.00
31681;BME280;18281;51.364;9.566;2023-09-18T09:08:54;99114.53;;;17.09;100.00
31681;BME280;18281;51.364;9.566;2023-09-18T09:11:20;99117.66;;;17.22;100.00
31681;BME280;18281;51.364;9.566;2023-09-18T09:13:45;99106.09;;;17.14;100.00
31681;BME280;18281;51.364;9.566;2023-09-18T09:16:11;99116.88;;;17.12;100.00
31681;BME280;18281;51.364;9.566;2023-09-18T09:18:46;99112.94;;;17.16;100.00
31681;BME280;18281;51.364;9.566;2023-09-18T09:21:12;99119.59;;;17.20;100.00
31681;BME280;18281;51.364;9.566;2023-09-18T09:23:47;99120.38;;;17.31;100.00
31681;BME280;18281;51.364;9.566;2023-09-18T09:26:19;99118.81;;;17.38;100.00
31681;BME280;18281;51.364;9.566;2023-09-18T09:28:45;99111.38;;;17.41;100.00
31681;BME280;18281;51.364;9.566;2023-09-18T09:31:11;99104.56;;;17.39;100.00
31681;BME280;18281;51.364;9.566;2023-09-18T09:33:50;99104.53;;;17.57;100.00
31681;BME280;18281;51.364;9.566;2023-09-18T09:36:19;99109.94;;;17.47;100.00
31681;BME280;18281;51.364;9.566;2023-09-18T09:38:44;99101.44;;;17.62;100.00
31681;BME280;18281;51.364;9.566;2023-09-18T09:41:13;99109.94;;;17.65;100.00
31681;BME280;18281;51.364;9.566;2023-09-18T09:43:38;99106.59;;;17.63;100.00
31681;BME280;18281;51.364;9.566;2023-09-18T09:46:07;99105.13;;;17.69;100.00
31681;BME280;18281;51.364;9.566;2023-09-18T09:48:39;99116.72;;;17.68;100.00
31681;BME280;18281;51.364;9.566;2023-09-18T09:51:05;99114.78;;;17.70;100.00
31681;BME280;18281;51.364;9.566;2023-09-18T09:53:46;99105.81;;;17.71;100.00
31681;BME280;18281;51.364;9.566;2023-09-18T09:56:16;99087.63;;;17.76;100.00
31681;BME280;18281;51.364;9.566;2023-09-18T09:58:59;99101.63;;;17.86;100.00
31681;BME280;18281;51.364;9.566;2023-09-18T10:01:25;99099.22;;;17.75;100.00
31681;BME280;18281;51.364;9.566;2023-09-18T10:03:53;99107.28;;;17.91;100.00
31681;BME280;18281;51.364;9.566;2023-09-18T10:06:19;99096.06;;;17.98;100.00
31681;BME280;18281;51.364;9.566;2023-09-18T10:08:44;99107.41;;;18.08;100.00
31681;BME280;18281;51.364;9.566;2023-09-18T10:11:10;99120.22;;;18.13;100.00
31681;BME280;18281;51.364;9.566;2023-09-18T10:13:48;99105.84;;;17.97;100.00
31681;BME280;18281;51.364;9.566;2023-09-18T10:16:17;99119.94;;;18.16;100.00
31681;BME280;18281;51.364;9.566;2023-09-18T10:21:42;99104.97;;;18.15;100.00
31681;BME280;18281;51.364;9.566;2023-09-18T10:24:17;99102.09;;;18.08;100.00
31681;BME280;18281;51.364;9.566;2023-09-18T10:27:05;99103.59;;;18.29;100.00
31681;BME280;18281;51.364;9.566;2023-09-18T10:29:32;99119.69;;;18.27;100.00
31681;BME280;18281;51.364;9.566;2023-09-18T10:31:58;99133.19;;;18.34;100.00
31681;BME280;18281;51.364;9.566;2023-09-18T10:34:24;99136.50;;;18.36;100.00
31681;BME280;18281;51.364;9.566;2023-09-18T10:36:50;99116.94;;;18.45;100.00
31681;BME280;18281;51.364;9.566;2023-09-18T10:39:16;99131.22;;;18.44;100.00
31681;BME280;18281;51.364;9.566;2023-09-18T10:41:48;99136.81;;;18.33;100.00
31681;BME280;18281;51.364;9.566;2023-09-18T10:44:13;99133.47;;;18.31;100.00
31681;BME280;18281;51.364;9.566;2023-09-18T10:46:39;99138.16;;;18.37;100.00
31681;BME280;18281;51.364;9.566;2023-09-18T10:49:04;99140.66;;;18.38;100.00
31681;BME280;18281;51.364;9.566;2023-09-18T10:51:30;99151.53;;;18.53;100.00
31681;BME280;18281;51.364;9.566;2023-09-18T10:53:56;99148.31;;;18.41;100.00
31681;BME280;18281;51.364;9.566;2023-09-18T10:56:22;99148.88;;;18.53;100.00
31681;BME280;18281;51.364;9.566;2023-09-18T10:58:55;99131.00;;;18.64;100.00
31681;BME280;18281;51.364;9.566;2023-09-18T11:01:20;99133.03;;;18.70;100.00
31681;BME280;18281;51.364;9.566;2023-09-18T11:03:48;99135.75;;;18.52;100.00
31681;BME280;18281;51.364;9.566;2023-09-18T11:06:15;99144.47;;;18.36;100.00
31681;BME280;18281;51.364;9.566;2023-09-18T11:08:43;99136.00;;;18.32;100.00
31681;BME280;18281;51.364;9.566;2023-09-18T11:11:10;99144.03;;;18.49;100.00
31681;BME280;18281;51.364;9.566;2023-09-18T11:13:39;99132.31;;;18.59;100.00
31681;BME280;18281;51.364;9.566;2023-09-18T11:18:42;99134.16;;;18.67;100.00
31681;BME280;18281;51.364;9.566;2023-09-18T11:21:11;99120.19;;;18.65;100.00
31681;BME280;18281;51.364;9.566;2023-09-18T11:23:37;99119.09;;;18.84;100.00
31681;BME280;18281;51.364;9.566;2023-09-18T11:26:04;99130.72;;;18.75;100.00
31681;BME280;18281;51.364;9.566;2023-09-18T11:28:32;99144.91;;;18.57;100.00
31681;BME280;18281;51.364;9.566;2023-09-18T11:30:57;99137.69;;;18.76;100.00
31681;BME280;18281;51.364;9.566;2023-09-18T11:33:40;99154.00;;;18.81;100.00
31681;BME280;18281;51.364;9.566;2023-09-18T11:36:07;99166.66;;;18.87;100.00
31681;BME280;18281;51.364;9.566;2023-09-18T11:38:33;99167.25;;;18.73;100.00
31681;BME280;18281;51.364;9.566;2023-09-18T11:40:59;99156.94;;;18.70;100.00
31681;BME280;18281;51.364;9.566;2023-09-18T11:43:26;99164.41;;;18.66;100.00
31681;BME280;18281;51.364;9.566;2023-09-18T11:45:56;99159.66;;;18.86;100.00
31681;BME280;18281;51.364;9.566;2023-09-18T11:48:22;99154.75;;;19.00;100.00
31681;BME280;18281;51.364;9.566;2023-09-18T11:50:56;99144.69;;;18.85;100.00
31681;BME280;18281;51.364;9.566;2023-09-18T11:53:21;99141.44;;;18.91;100.00
31681;BME280;18281;51.364;9.566;2023-09-18T11:55:48;99143.03;;;18.84;100.00
31681;BME280;18281;51.364;9.566;2023-09-18T11:58:14;99144.03;;;18.83;100.00
31681;BME280;18281;51.364;9.566;2023-09-18T12:00:39;99148.22;;;18.86;100.00
31681;BME280;18281;51.364;9.566;2023-09-18T12:03:23;99144.13;;;19.00;100.00
31681;BME280;18281;51.364;9.566;2023-09-18T12:05:56;99146.78;;;19.08;100.00
31681;BME280;18281;51.364;9.566;2023-09-18T12:08:22;99147.75;;;18.99;100.00
31681;BME280;18281;51.364;9.566;2023-09-18T12:10:48;99165.38;;;18.91;100.00
31681;BME280;18281;51.364;9.566;2023-09-18T12:13:14;99142.44;;;18.99;100.00
31681;BME280;18281;51.364;9.566;2023-09-18T12:15:40;99151.41;;;18.98;100.00
31681;BME280;18281;51.364;9.566;2023-09-18T12:18:06;99154.06;;;18.89;100.00
31681;BME280;18281;51.364;9.566;2023-09-18T12:20:31;99156.72;;;18.98;100.00
31681;BME280;18281;51.364;9.566;2023-09-18T12:22:59;99148.63;;;19.07;100.00
31681;BME280;18281;51.364;9.566;2023-09-18T12:25:24;99144.63;;;19.03;100.00
31681;BME280;18281;51.364;9.566;2023-09-18T12:27:53;99144.00;;;18.75;100.00
31681;BME280;18281;51.364;9.566;2023-09-18T12:30:18;99141.13;;;19.03;100.00
31681;BME280;18281;51.364;9.566;2023-09-18T12:32:46;99134.19;;;19.10;100.00
31681;BME280;18281;51.364;9.566;2023-09-18T12:35:13;99144.81;;;19.02;100.00
31681;BME280;18281;51.364;9.566;2023-09-18T12:37:39;99151.66;;;19.13;100.00
31681;BME280;18281;51.364;9.566;2023-09-18T12:40:05;99143.47;;;19.06;100.00
31681;BME280;18281;51.364;9.566;2023-09-18T12:42:36;99141.00;;;19.13;100.00
31681;BME280;18281;51.364;9.566;2023-09-18T12:45:05;99140.84;;;19.14;100.00
31681;BME280;18281;51.364;9.566;2023-09-18T12:47:31;99134.03;;;19.20;100.00
31681;BME280;18281;51.364;9.566;2023-09-18T12:50:01;99141.97;;;19.03;100.00
31681;BME280;18281;51.364;9.566;2023-09-18T12:52:26;99151.28;;;19.07;100.00
31681;BME280;18281;51.364;9.566;2023-09-18T12:54:53;99153.88;;;18.91;100.00
31681;BME280;18281;51.364;9.566;2023-09-18T12:57:20;99155.09;;;19.05;100.00